createdAt,value
2022-11-14T00:01:50.307Z,2.73
2022-11-14T00:04:56.687Z,2.76
2022-11-14T00:08:02.645Z,2.72
2022-11-14T00:11:09.770Z,2.67
2022-11-14T00:14:15.975Z,2.34
2022-11-14T00:17:22.613Z,2.65
2022-11-14T00:20:28.510Z,2.70
2022-11-14T00:23:34.493Z,2.71
2022-11-14T00:26:40.670Z,2.64
2022-11-14T00:29:46.572Z,2.68
2022-11-14T00:32:52.510Z,2.37
2022-11-14T00:35:58.634Z,2.38
2022-11-14T00:39:05.020Z,2.59
2022-11-14T00:42:10.850Z,2.50
2022-11-14T00:45:17.020Z,2.53
2022-11-14T00:48:44.148Z,2.57
2022-11-14T00:51:50.493Z,2.55
2022-11-14T00:54:56.527Z,2.53
2022-11-14T00:58:02.752Z,2.42
2022-11-14T01:01:09.289Z,2.53
2022-11-14T01:04:15.181Z,2.52
2022-11-14T01:07:21.606Z,2.49
2022-11-14T01:10:27.856Z,2.49
2022-11-14T01:13:34.285Z,2.56
2022-11-14T01:16:40.381Z,2.47
2022-11-14T01:19:46.471Z,2.44
2022-11-14T01:22:52.668Z,2.41
2022-11-14T01:26:03.617Z,2.63
2022-11-14T01:29:09.592Z,2.45
2022-11-14T01:32:15.699Z,2.26
2022-11-14T01:35:22.015Z,2.28
2022-11-14T01:38:31.324Z,2.24
2022-11-14T01:41:37.593Z,2.20
2022-11-14T01:44:49.264Z,2.32
2022-11-14T01:48:14.526Z,2.14
2022-11-14T01:51:35.066Z,2.33
2022-11-14T01:54:47.059Z,2.29
2022-11-14T01:57:53.446Z,2.37
2022-11-14T02:01:00.173Z,2.36
2022-11-14T02:04:08.878Z,2.29
2022-11-14T02:07:18.890Z,2.36
2022-11-14T02:10:24.720Z,2.48
2022-11-14T02:13:31.111Z,2.27
2022-11-14T02:16:41.173Z,2.56
2022-11-14T02:20:06.903Z,2.54
2022-11-14T02:23:13.496Z,2.55
2022-11-14T02:26:21.032Z,2.24
2022-11-14T02:29:27.042Z,2.50
2022-11-14T02:32:56.978Z,2.25
2022-11-14T02:35:59.213Z,2.23
2022-11-14T02:39:05.260Z,2.33
2022-11-14T02:42:11.446Z,2.28
2022-11-14T02:45:17.752Z,2.39
2022-11-14T02:48:23.915Z,2.45
2022-11-14T02:51:30.054Z,2.43
2022-11-14T02:54:36.249Z,2.19
2022-11-14T02:57:42.152Z,2.30
2022-11-14T03:01:18.584Z,2.32
2022-11-14T03:04:14.268Z,2.34
2022-11-14T03:07:20.534Z,2.27
2022-11-14T03:10:26.877Z,2.16
2022-11-14T03:13:32.891Z,2.35
2022-11-14T03:16:38.703Z,2.37
2022-11-14T03:19:44.790Z,2.18
2022-11-14T03:22:51.156Z,2.23
2022-11-14T03:26:01.295Z,2.22
2022-11-14T03:29:07.274Z,2.38
2022-11-14T03:32:13.374Z,2.46
2022-11-14T03:35:19.742Z,2.34
2022-11-14T03:38:25.983Z,2.47
2022-11-14T03:41:32.773Z,2.42
2022-11-14T03:44:39.218Z,2.39
2022-11-14T03:47:45.564Z,2.48
2022-11-14T03:50:51.990Z,2.53
2022-11-14T03:53:58.331Z,2.46
2022-11-14T03:57:08.825Z,2.24
2022-11-14T04:00:15.710Z,2.42
2022-11-14T04:03:22.690Z,2.62
2022-11-14T04:06:29.080Z,2.55
2022-11-14T04:09:35.540Z,2.48
2022-11-14T04:12:41.562Z,2.47
2022-11-14T04:15:47.885Z,2.54
2022-11-14T04:18:54.251Z,2.53
2022-11-14T04:22:00.500Z,2.61
2022-11-14T04:25:12.608Z,2.45
2022-11-14T04:28:18.999Z,2.60
2022-11-14T04:31:25.181Z,2.60
2022-11-14T04:34:31.409Z,2.63
2022-11-14T04:37:40.245Z,2.56
2022-11-14T04:40:54.137Z,2.65
2022-11-14T04:44:00.159Z,2.68
2022-11-14T04:47:06.541Z,2.71
2022-11-14T04:50:12.766Z,2.53
2022-11-14T04:53:21.753Z,2.85
2022-11-14T04:56:30.201Z,2.86
2022-11-14T04:59:36.451Z,2.80
2022-11-14T05:02:42.419Z,2.80
2022-11-14T05:05:48.540Z,2.83
2022-11-14T05:08:54.398Z,2.85
2022-11-14T05:12:00.664Z,2.80
2022-11-14T05:15:07.314Z,2.87
2022-11-14T05:18:13.677Z,2.84
2022-11-14T05:21:19.551Z,2.87
2022-11-14T05:24:26.409Z,2.89
2022-11-14T05:27:32.641Z,2.92
2022-11-14T05:30:38.912Z,2.92
2022-11-14T05:33:47.249Z,2.94
2022-11-14T05:36:53.643Z,2.93
2022-11-14T05:40:00.047Z,3.11
2022-11-14T05:43:07.253Z,3.01
2022-11-14T05:46:14.879Z,3.07
2022-11-14T05:49:22.197Z,3.13
2022-11-14T05:52:28.243Z,3.23
2022-11-14T05:55:34.519Z,3.35
2022-11-14T05:58:40.740Z,3.47
2022-11-14T06:01:46.796Z,3.56
2022-11-14T06:04:53.154Z,3.70
2022-11-14T06:07:59.561Z,3.64
2022-11-14T06:11:08.236Z,3.71
2022-11-14T06:14:14.214Z,3.90
2022-11-14T06:17:20.314Z,3.97
2022-11-14T06:20:26.519Z,3.81
2022-11-14T06:23:32.872Z,3.95
2022-11-14T06:26:39.213Z,4.00
2022-11-14T06:29:45.248Z,4.22
2022-11-14T06:32:57.356Z,4.32
2022-11-14T06:36:07.864Z,4.31
2022-11-14T06:39:13.832Z,4.45
2022-11-14T06:42:20.023Z,4.61
2022-11-14T06:45:26.308Z,4.65
2022-11-14T06:48:33.022Z,4.64
2022-11-14T06:51:38.916Z,4.69
2022-11-14T06:54:45.361Z,4.76
2022-11-14T06:57:55.126Z,4.83
2022-11-14T07:01:08.444Z,4.90
2022-11-14T07:04:14.486Z,5.05
2022-11-14T07:07:20.704Z,4.93
2022-11-14T07:10:26.806Z,5.14
2022-11-14T07:13:33.796Z,5.24
2022-11-14T07:16:39.760Z,5.39
2022-11-14T07:19:45.924Z,5.46
2022-11-14T07:22:52.190Z,5.46
2022-11-14T07:26:03.050Z,5.56
2022-11-14T07:29:09.133Z,5.63
2022-11-14T07:32:15.557Z,5.75
2022-11-14T07:35:21.702Z,5.82
2022-11-14T07:38:28.413Z,5.85
2022-11-14T07:41:34.854Z,5.99
2022-11-14T07:44:41.059Z,6.09
2022-11-14T07:47:47.169Z,6.15
2022-11-14T07:50:53.277Z,6.08
2022-11-14T07:53:59.154Z,6.33
2022-11-14T07:57:05.524Z,6.22
2022-11-14T08:00:12.354Z,6.34
2022-11-14T08:03:18.259Z,6.34
2022-11-14T08:06:24.532Z,6.64
2022-11-14T08:09:30.852Z,6.63
2022-11-14T08:12:38.767Z,6.72
2022-11-14T08:15:44.866Z,6.89
2022-11-14T08:18:51.154Z,6.94
2022-11-14T08:21:57.536Z,6.98
2022-11-14T08:25:04.036Z,7.09
2022-11-14T08:28:10.122Z,7.17
2022-11-14T08:31:16.295Z,7.16
2022-11-14T08:34:23.902Z,7.39
2022-11-14T08:37:29.723Z,7.36
2022-11-14T08:40:35.676Z,7.53
2022-11-14T08:43:41.899Z,7.47
2022-11-14T08:46:47.899Z,7.48
2022-11-14T08:49:54.074Z,7.54
2022-11-14T08:53:00.330Z,7.52
2022-11-14T08:56:06.822Z,7.54
2022-11-14T08:59:12.965Z,7.54
2022-11-14T09:02:19.297Z,7.68
2022-11-14T09:05:26.007Z,7.70
2022-11-14T09:08:32.759Z,7.75
2022-11-14T09:11:39.429Z,7.88
2022-11-14T09:14:45.633Z,8.15
2022-11-14T09:17:55.923Z,8.04
2022-11-14T09:21:06.727Z,8.06
2022-11-14T09:24:12.576Z,8.09
2022-11-14T09:27:19.024Z,8.12
2022-11-14T09:30:25.391Z,8.12
2022-11-14T09:33:31.686Z,8.27
2022-11-14T09:36:38.132Z,8.23
2022-11-14T09:39:44.344Z,8.30
2022-11-14T09:43:02.923Z,8.37
2022-11-14T09:46:19.316Z,8.44
2022-11-14T09:49:55.040Z,8.39
2022-11-14T09:53:08.205Z,8.32
2022-11-14T09:56:20.609Z,8.39
2022-11-14T09:59:27.461Z,8.36
2022-11-14T10:03:06.883Z,8.50
2022-11-14T10:06:32.670Z,8.46
2022-11-14T10:09:52.548Z,8.50
2022-11-14T10:13:07.182Z,8.50
2022-11-14T10:16:18.803Z,8.49
2022-11-14T10:19:37.498Z,8.34
2022-11-14T10:23:14.391Z,8.53
2022-11-14T10:26:33.391Z,8.59
2022-11-14T10:30:10.862Z,8.56
2022-11-14T10:33:35.614Z,8.61
2022-11-14T10:37:14.349Z,8.67
2022-11-14T10:40:25.171Z,8.72
2022-11-14T10:43:45.160Z,8.67
2022-11-14T10:46:56.753Z,8.73
2022-11-14T10:50:25.274Z,8.92
2022-11-14T10:53:34.195Z,8.92
2022-11-14T10:56:47.977Z,8.89
2022-11-14T10:59:55.752Z,9.00
2022-11-14T11:03:01.944Z,9.06
2022-11-14T11:06:25.213Z,9.05
2022-11-14T11:09:50.049Z,9.02
2022-11-14T11:12:56.590Z,8.89
2022-11-14T11:16:05.286Z,9.02
2022-11-14T11:19:18.023Z,9.17
2022-11-14T11:22:26.268Z,9.05
2022-11-14T11:25:34.387Z,9.08
2022-11-14T11:28:43.665Z,9.06
2022-11-14T11:31:59.666Z,9.10
2022-11-14T11:35:12.455Z,9.14
2022-11-14T11:38:20.340Z,9.17
2022-11-14T11:45:01.900Z,9.16
2022-11-14T11:48:19.926Z,8.91
2022-11-14T11:51:27.228Z,8.92
2022-11-14T11:54:55.626Z,8.89
2022-11-14T11:58:27.783Z,8.93
2022-11-14T12:01:33.851Z,8.92
2022-11-14T12:04:40.134Z,8.99
2022-11-14T12:07:58.879Z,9.09
2022-11-14T12:11:10.265Z,8.99
2022-11-14T12:14:41.195Z,9.01
2022-11-14T12:17:56.022Z,9.02
2022-11-14T12:21:12.791Z,9.01
2022-11-14T12:24:41.474Z,9.03
2022-11-14T12:28:07.877Z,8.96
2022-11-14T12:31:17.274Z,9.05
2022-11-14T12:34:32.143Z,9.08
2022-11-14T12:37:44.820Z,9.19
2022-11-14T12:41:00.650Z,9.09
2022-11-14T12:44:28.285Z,9.18
2022-11-14T12:47:34.860Z,9.27
2022-11-14T12:50:43.267Z,9.32
2022-11-14T12:53:49.701Z,9.47
2022-11-14T12:57:00.973Z,9.36
2022-11-14T13:00:09.247Z,9.32
2022-11-14T13:03:41.708Z,9.48
2022-11-14T13:07:15.848Z,9.45
2022-11-14T13:10:32.383Z,9.47
2022-11-14T13:14:20.740Z,9.21
2022-11-14T13:17:45.999Z,9.09
2022-11-14T13:21:21.756Z,9.07
2022-11-14T13:24:59.741Z,9.29
2022-11-14T13:28:37.437Z,9.31
2022-11-14T13:31:49.660Z,9.05
2022-11-14T13:35:03.499Z,9.24
2022-11-14T13:38:48.827Z,9.19
2022-11-14T13:42:07.943Z,9.18
2022-11-14T13:45:42.877Z,9.09
2022-11-14T13:49:37.291Z,8.99
2022-11-14T13:52:47.044Z,9.01
2022-11-14T13:55:59.677Z,8.88
2022-11-14T13:59:46.718Z,8.97
2022-11-14T14:03:07.800Z,9.01
2022-11-14T14:06:51.059Z,9.17
2022-11-14T14:10:26.841Z,9.04
2022-11-14T14:13:55.657Z,9.09
2022-11-14T14:17:19.023Z,8.94
2022-11-14T14:20:36.197Z,8.99
2022-11-14T14:23:58.177Z,9.03
2022-11-14T14:27:41.048Z,8.90
2022-11-14T14:31:25.353Z,8.91
2022-11-14T14:34:32.269Z,8.79
2022-11-14T14:37:38.375Z,8.71
2022-11-14T14:40:44.746Z,8.69
2022-11-14T14:43:55.360Z,8.80
2022-11-14T14:47:31.210Z,8.61
2022-11-14T14:50:42.158Z,8.72
2022-11-14T14:53:54.236Z,8.77
2022-11-14T14:57:00.651Z,8.74
2022-11-14T15:00:26.455Z,8.62
2022-11-14T15:03:38.081Z,8.67
2022-11-14T15:06:47.181Z,8.66
2022-11-14T15:10:02.236Z,8.63
2022-11-14T15:13:15.056Z,8.63
2022-11-14T15:16:22.121Z,8.64
2022-11-14T15:19:40.740Z,8.64
2022-11-14T15:23:26.925Z,8.23
2022-11-14T15:26:55.246Z,8.44
2022-11-14T15:30:04.934Z,8.46
2022-11-14T15:33:34.462Z,8.40
2022-11-14T15:37:07.735Z,8.55
2022-11-14T15:40:23.098Z,8.54
2022-11-14T15:43:45.560Z,8.47
2022-11-14T15:46:52.671Z,8.47
2022-11-14T15:50:06.080Z,8.42
2022-11-14T15:53:23.334Z,8.45
2022-11-14T15:56:30.634Z,8.41
2022-11-14T15:59:37.675Z,8.52
2022-11-14T16:02:59.574Z,8.44
2022-11-14T16:06:05.750Z,8.47
2022-11-14T16:09:18.370Z,8.44
2022-11-14T16:12:24.620Z,8.43
2022-11-14T16:15:30.896Z,8.34
2022-11-14T16:18:37.102Z,8.44
2022-11-14T16:21:43.605Z,8.35
2022-11-14T16:24:49.635Z,8.28
2022-11-14T16:27:55.942Z,8.24
2022-11-14T16:31:02.171Z,8.31
2022-11-14T16:34:15.691Z,8.32
2022-11-14T16:37:25.597Z,8.36
2022-11-14T16:40:40.310Z,8.33
2022-11-14T16:43:46.647Z,8.43
2022-11-14T16:46:52.609Z,8.37
2022-11-14T16:49:59.229Z,8.29
2022-11-14T16:53:15.201Z,8.35
2022-11-14T16:56:21.565Z,8.28
2022-11-14T16:59:27.855Z,8.19
2022-11-14T17:02:34.093Z,8.27
2022-11-14T17:05:50.614Z,8.33
2022-11-14T17:08:59.805Z,8.36
2022-11-14T17:12:06.849Z,8.32
2022-11-14T17:15:13.086Z,8.25
2022-11-14T17:18:19.449Z,8.27
2022-11-14T17:21:26.657Z,8.27
2022-11-14T17:24:34.920Z,8.31
2022-11-14T17:27:40.924Z,8.32
2022-11-14T17:30:46.807Z,8.21
2022-11-14T17:33:55.351Z,8.35
2022-11-14T17:37:02.097Z,8.35
2022-11-14T17:40:15.517Z,8.33
2022-11-14T17:43:42.748Z,8.39
2022-11-14T17:46:52.239Z,8.36
2022-11-14T17:49:58.387Z,8.33
2022-11-14T17:53:04.621Z,8.34
2022-11-14T17:56:19.727Z,8.25
2022-11-14T17:59:26.033Z,8.25
2022-11-14T18:02:32.257Z,8.16
2022-11-14T18:05:38.862Z,8.23
2022-11-14T18:08:44.903Z,8.24
2022-11-14T18:11:51.058Z,8.31
2022-11-14T18:14:56.982Z,8.34
2022-11-14T18:18:03.184Z,8.27
2022-11-14T18:21:20.154Z,8.37
2022-11-14T18:24:26.635Z,8.36
2022-11-14T18:27:32.519Z,8.39
2022-11-14T18:30:42.292Z,8.30
2022-11-14T18:33:48.832Z,8.27
2022-11-14T18:36:55.137Z,8.25
2022-11-14T18:40:01.039Z,8.20
2022-11-14T18:43:07.327Z,8.30
2022-11-14T18:46:21.924Z,8.26
2022-11-14T18:49:28.619Z,8.27
2022-11-14T18:52:34.757Z,8.31
2022-11-14T18:55:43.165Z,8.29
2022-11-14T18:58:53.422Z,8.27
2022-11-14T19:02:02.117Z,8.04
2022-11-14T19:05:08.872Z,8.22
2022-11-14T19:08:21.316Z,8.30
2022-11-14T19:11:46.274Z,8.27
2022-11-14T19:14:54.122Z,8.16
2022-11-14T19:18:00.627Z,8.13
2022-11-14T19:21:06.725Z,7.95
2022-11-14T19:24:13.067Z,8.10
2022-11-14T19:27:22.164Z,8.13
2022-11-14T19:30:30.862Z,7.93
2022-11-14T19:33:41.455Z,8.19
2022-11-14T19:37:03.232Z,8.22
2022-11-14T19:40:10.433Z,8.10
2022-11-14T19:43:18.015Z,8.05
2022-11-14T19:46:31.607Z,8.13
2022-11-14T19:49:37.709Z,8.10
2022-11-14T19:52:43.908Z,8.13
2022-11-14T19:55:49.911Z,8.22
2022-11-14T19:58:56.927Z,7.99
2022-11-14T20:02:05.832Z,8.04
2022-11-14T20:05:12.155Z,8.00
2022-11-14T20:08:18.461Z,8.06
2022-11-14T20:11:27.578Z,8.12
2022-11-14T20:14:33.856Z,8.03
2022-11-14T20:17:40.331Z,8.13
2022-11-14T20:20:46.401Z,8.04
2022-11-14T20:23:53.533Z,7.97
2022-11-14T20:26:59.880Z,8.03
2022-11-14T20:30:06.927Z,7.90
2022-11-14T20:33:13.307Z,8.00
2022-11-14T20:36:22.349Z,8.06
2022-11-14T20:39:28.901Z,8.08
2022-11-14T20:42:35.063Z,7.97
2022-11-14T20:45:41.325Z,8.10
2022-11-14T20:48:48.316Z,8.11
2022-11-14T20:51:54.422Z,8.00
2022-11-14T20:55:00.849Z,8.03
2022-11-14T20:58:07.133Z,8.01
2022-11-14T21:01:14.281Z,8.00
2022-11-14T21:04:20.593Z,8.00
2022-11-14T21:07:27.006Z,8.02
2022-11-14T21:10:47.266Z,7.97
2022-11-14T21:13:59.302Z,8.08
2022-11-14T21:17:05.595Z,8.09
2022-11-14T21:20:11.762Z,8.01
2022-11-14T21:23:17.580Z,8.04
2022-11-14T21:26:27.905Z,8.08
2022-11-14T21:29:34.139Z,8.10
2022-11-14T21:32:42.509Z,8.02
2022-11-14T21:35:48.484Z,8.12
2022-11-14T21:38:55.142Z,8.12
2022-11-14T21:42:01.032Z,8.13
2022-11-14T21:45:07.734Z,8.02
2022-11-14T21:48:13.722Z,7.87
2022-11-14T21:51:22.926Z,7.95
2022-11-14T21:54:28.854Z,8.04
2022-11-14T21:57:35.000Z,8.05
2022-11-14T22:00:42.238Z,8.07
2022-11-14T22:04:07.117Z,8.06
2022-11-14T22:07:13.188Z,7.96
2022-11-14T22:10:19.490Z,7.95
2022-11-14T22:13:25.825Z,7.79
2022-11-14T22:16:33.095Z,8.00
2022-11-14T22:19:39.378Z,7.96
2022-11-14T22:22:45.365Z,7.85
2022-11-14T22:25:59.582Z,7.97
2022-11-14T22:29:06.824Z,7.99
2022-11-14T22:32:13.254Z,7.96
2022-11-14T22:35:19.588Z,7.90
2022-11-14T22:38:29.110Z,7.92
2022-11-14T22:41:35.327Z,7.97
2022-11-14T22:44:41.574Z,7.94
2022-11-14T22:47:48.052Z,7.95
2022-11-14T22:51:24.960Z,7.91
2022-11-14T22:54:31.361Z,7.91
2022-11-14T22:57:37.506Z,7.84
2022-11-14T23:00:43.656Z,7.91
2022-11-14T23:03:54.926Z,7.90
2022-11-14T23:07:01.879Z,7.82
2022-11-14T23:10:11.033Z,7.84
2022-11-14T23:13:17.301Z,7.82
2022-11-14T23:16:30.057Z,7.81
2022-11-14T23:19:36.292Z,7.78
2022-11-14T23:22:42.571Z,7.78
2022-11-14T23:25:48.976Z,7.79
2022-11-14T23:28:55.651Z,7.65
2022-11-14T23:32:02.115Z,7.82
2022-11-14T23:35:08.311Z,7.85
2022-11-14T23:38:14.449Z,7.83
2022-11-14T23:41:27.608Z,7.82
2022-11-14T23:44:34.022Z,7.85
2022-11-14T23:47:40.399Z,7.73
2022-11-14T23:50:50.969Z,7.70
2022-11-14T23:53:56.876Z,7.76
2022-11-14T23:57:04.810Z,7.82
